Time;durP1;ratioP1;P1;durP2;ratioP2;P2;SDS_P1;SDS_P2;PMS_P1;PMS_P2;Temp;Humidity;BMP_temperature;BMP_pressure;BME280_temperature;BME280_humidity;BME280_pressure;Samples;Min_cycle;Max_cycle;Signal;HPM_P1;HPM_P2
2022/06/16 00:01:04;;;;;;;11.18;6.07;;;;;;;16.07;56.84;94011.25;4916272;29;20048;-58
2022/06/16 00:03:31;;;;;;;9.20;5.68;;;;;;;16.08;56.89;94008.03;4931782;29;20048;-59
2022/06/16 00:05:58;;;;;;;8.32;5.43;;;;;;;16.05;56.97;94014.44;4899969;29;20114;-57
2022/06/16 00:08:24;;;;;;;8.80;5.40;;;;;;;16.08;57.22;94007.25;4932047;29;20375;-59
2022/06/16 00:13:39;;;;;;;8.38;5.63;;;;;;;16.06;57.10;94006.94;4919707;29;20446;-59
2022/06/16 00:16:07;;;;;;;8.50;5.82;;;;;;;16.06;57.13;94007.72;4929349;29;20044;-59
2022/06/16 00:18:35;;;;;;;9.10;5.28;;;;;;;16.06;57.40;94010.47;4932169;29;20110;-59
2022/06/16 00:21:02;;;;;;;8.17;5.50;;;;;;;15.93;57.79;94006.97;4918236;29;20044;-59
2022/06/16 00:23:29;;;;;;;10.70;5.93;;;;;;;15.75;58.50;94011.13;4930985;29;20053;-59
2022/06/16 00:26:04;;;;;;;8.20;5.75;;;;;;;15.77;58.63;94011.47;4931380;29;20125;-58
2022/06/16 00:28:30;;;;;;;9.13;5.60;;;;;;;15.77;58.12;94005.13;4931755;29;20044;-59
2022/06/16 00:31:05;;;;;;;9.40;5.65;;;;;;;15.76;58.13;94014.66;4919788;29;20540;-58
2022/06/16 00:33:32;;;;;;;9.47;6.00;;;;;;;15.81;57.92;94007.78;4927460;29;20040;-58
2022/06/16 00:35:59;;;;;;;9.25;5.80;;;;;;;15.79;58.27;94013.75;4934738;29;20048;-58
2022/06/16 00:38:26;;;;;;;9.38;6.32;;;;;;;15.68;58.37;94014.09;4935340;29;20442;-58
2022/06/16 00:40:53;;;;;;;10.68;6.10;;;;;;;15.43;59.49;94014.91;4935615;29;20050;-58
2022/06/16 00:43:20;;;;;;;9.50;6.68;;;;;;;15.27;60.17;94009.50;4934734;29;20050;-59
2022/06/16 00:45:59;;;;;;;12.90;6.90;;;;;;;15.34;59.99;94009.28;4935159;29;20387;-58
2022/06/16 00:48:49;;;;;;;11.73;6.70;;;;;;;15.40;59.96;94007.50;4934543;29;20360;-58
2022/06/16 00:51:35;;;;;;;10.85;6.60;;;;;;;15.41;59.76;94000.75;4934617;29;20055;-58
2022/06/16 00:54:20;;;;;;;8.57;6.25;;;;;;;15.38;59.80;93990.59;4934614;29;20118;-58
2022/06/16 00:56:49;;;;;;;10.93;6.30;;;;;;;15.41;59.75;93992.44;4921359;29;20395;-58
2022/06/16 00:59:15;;;;;;;10.83;6.53;;;;;;;15.18;60.46;93986.06;4915612;29;20052;-58
2022/06/16 01:01:44;;;;;;;9.75;6.53;;;;;;;14.99;61.09;93984.34;4921654;29;20047;-58
2022/06/16 01:06:58;;;;;;;12.60;6.93;;;;;;;15.08;60.80;93987.19;4927892;29;20051;-58
2022/06/16 01:09:30;;;;;;;10.18;6.60;;;;;;;14.91;61.46;93992.06;4933934;29;20585;-58
2022/06/16 01:15:05;;;;;;;9.82;6.63;;;;;;;14.98;61.46;93974.47;4920403;29;20921;-57
2022/06/16 01:17:44;;;;;;;9.75;6.55;;;;;;;14.97;61.17;93976.47;4933998;29;20052;-58
2022/06/16 01:21:00;;;;;;;11.60;6.47;;;;;;;15.09;60.84;93979.66;4934163;29;20404;-57
2022/06/16 01:23:48;;;;;;;9.85;6.32;;;;;;;14.96;61.06;93976.91;4926825;29;21579;-59
2022/06/16 01:26:34;;;;;;;8.80;6.90;;;;;;;14.94;61.10;93982.88;4933880;29;20047;-59
2022/06/16 01:29:10;;;;;;;10.43;7.00;;;;;;;14.95;60.83;93986.41;4934117;29;20065;-57
2022/06/16 01:31:48;;;;;;;9.40;6.65;;;;;;;14.92;60.93;93988.06;4921055;29;20071;-58
2022/06/16 01:34:39;;;;;;;9.15;6.70;;;;;;;14.71;61.75;93972.94;4928302;29;20070;-59
2022/06/16 01:37:20;;;;;;;9.55;6.68;;;;;;;14.77;61.60;93965.66;4933843;29;20439;-58
2022/06/16 01:40:15;;;;;;;9.47;6.57;;;;;;;14.89;61.78;93977.91;4934354;29;20051;-58
2022/06/16 01:42:53;;;;;;;12.35;6.40;;;;;;;14.95;61.47;93978.13;4933414;29;20715;-58
2022/06/16 01:45:28;;;;;;;10.40;6.90;;;;;;;14.98;61.23;93977.25;4933119;28;20057;-58
2022/06/16 01:47:57;;;;;;;9.13;7.10;;;;;;;15.03;61.40;93973.16;4934327;29;20398;-58
2022/06/16 01:50:32;;;;;;;11.40;7.18;;;;;;;14.96;61.52;93980.44;4932944;29;21736;-58
2022/06/16 01:53:11;;;;;;;9.90;7.07;;;;;;;15.07;61.21;93971.03;4933342;29;20426;-59
2022/06/16 01:55:48;;;;;;;11.45;6.80;;;;;;;15.10;61.06;93972.94;4927974;29;20074;-58
2022/06/16 01:58:23;;;;;;;10.05;7.10;;;;;;;15.16;60.94;93960.09;4910883;29;20099;-58
2022/06/16 02:00:54;;;;;;;11.63;7.40;;;;;;;15.01;61.54;93959.00;4918060;29;20054;-58
2022/06/16 02:03:30;;;;;;;10.70;6.88;;;;;;;14.99;61.89;93967.75;4930224;29;20128;-58
2022/06/16 02:06:01;;;;;;;12.47;7.50;;;;;;;15.06;61.67;93973.03;4918857;29;20421;-59
2022/06/16 02:08:40;;;;;;;11.60;6.95;;;;;;;15.00;61.79;93972.03;4932994;29;21680;-59
2022/06/16 02:11:16;;;;;;;11.40;7.95;;;;;;;14.70;62.70;93956.78;4933195;29;20054;-59
2022/06/16 02:14:03;;;;;;;11.55;7.43;;;;;;;14.77;62.54;93959.34;4922283;29;20054;-59
2022/06/16 02:16:33;;;;;;;11.98;7.03;;;;;;;14.81;62.97;93951.72;4902975;29;21604;-59
2022/06/16 02:19:02;;;;;;;12.40;6.80;;;;;;;14.85;62.88;93957.13;4932949;29;20491;-58
2022/06/16 02:21:41;;;;;;;9.68;6.90;;;;;;;14.86;62.74;93947.63;4933531;29;20035;-59
2022/06/16 02:24:13;;;;;;;11.68;7.07;;;;;;;14.72;63.52;93946.06;4932988;29;20056;-59
2022/06/16 02:26:40;;;;;;;30.42;19.25;;;;;;;14.69;63.65;93944.19;4924972;29;20051;-59
2022/06/16 02:29:33;;;;;;;18.27;12.07;;;;;;;14.63;64.02;93941.22;4912604;29;20052;-58
2022/06/16 02:32:21;;;;;;;9.93;7.40;;;;;;;14.55;64.10;93937.88;4919187;29;20039;-57
2022/06/16 02:35:09;;;;;;;11.52;7.47;;;;;;;14.56;64.24;93949.72;4929205;29;20040;-58
2022/06/16 02:37:57;;;;;;;14.20;7.75;;;;;;;14.40;64.96;93942.25;4932345;29;20134;-58
2022/06/16 02:40:53;;;;;;;12.82;7.15;;;;;;;14.47;64.95;93944.06;4932381;29;20312;-58
2022/06/16 02:43:32;;;;;;;12.48;7.30;;;;;;;14.52;64.72;93941.50;4932675;29;20051;-58
2022/06/16 02:45:59;;;;;;;13.03;7.33;;;;;;;14.46;64.83;93942.50;4932724;29;20040;-58
2022/06/16 02:48:52;;;;;;;11.88;7.63;;;;;;;14.53;64.74;93951.34;4933092;29;20044;-58
2022/06/16 02:51:56;;;;;;;11.20;7.43;;;;;;;14.50;65.26;93954.22;4932576;29;20040;-58
2022/06/16 02:54:32;;;;;;;11.48;7.57;;;;;;;14.61;64.86;93962.19;4899752;29;20044;-58
2022/06/16 02:57:08;;;;;;;15.07;8.93;;;;;;;14.62;64.84;93961.75;4932281;29;20044;-58
2022/06/16 02:59:41;;;;;;;11.10;7.67;;;;;;;14.48;65.86;93973.97;4932916;29;20052;-58
2022/06/16 03:02:13;;;;;;;11.00;7.43;;;;;;;14.58;65.74;93975.66;4932349;29;20047;-59
2022/06/16 03:04:54;;;;;;;10.95;7.50;;;;;;;14.80;64.88;93974.25;4923297;29;20063;-59
2022/06/16 03:07:21;;;;;;;12.07;7.47;;;;;;;14.97;64.47;94008.88;4930474;29;20047;-58
2022/06/16 03:09:47;;;;;;;11.07;7.45;;;;;;;15.00;64.96;94012.72;4932810;29;20055;-58
2022/06/16 03:12:15;;;;;;;13.70;8.10;;;;;;;14.81;68.10;94028.28;4932105;29;20066;-58
2022/06/16 03:14:43;;;;;;;14.73;7.80;;;;;;;14.86;69.56;94013.94;4932779;29;20036;-58
2022/06/16 03:17:11;;;;;;;14.73;8.50;;;;;;;14.58;70.28;94025.38;4931929;29;20047;-58
2022/06/16 03:19:38;;;;;;;12.52;7.85;;;;;;;14.33;71.16;94020.53;4932420;29;20044;-58
2022/06/16 03:22:05;;;;;;;11.18;7.95;;;;;;;14.30;71.79;93985.53;4931999;29;20047;-58
2022/06/16 03:24:32;;;;;;;12.63;7.93;;;;;;;14.49;72.12;93983.03;4932227;29;21882;-58
2022/06/16 03:27:00;;;;;;;13.02;8.30;;;;;;;14.70;73.65;93981.66;4919327;29;20040;-58
2022/06/16 03:29:27;;;;;;;16.65;8.13;;;;;;;14.88;73.57;93978.34;4913523;29;20380;-58
2022/06/16 03:31:54;;;;;;;14.05;8.27;;;;;;;14.95;75.52;93986.41;4916697;29;20055;-58
2022/06/16 03:34:22;;;;;;;11.85;8.70;;;;;;;14.68;75.46;93989.59;4916405;29;20043;-58
2022/06/16 03:36:49;;;;;;;10.83;7.70;;;;;;;14.86;74.59;93989.84;4918912;29;20044;-58
2022/06/16 03:39:16;;;;;;;12.18;7.95;;;;;;;14.93;75.36;93995.16;4931802;29;20078;-58
2022/06/16 03:41:43;;;;;;;13.60;7.88;;;;;;;15.04;75.39;93991.28;4932195;29;20491;-59
2022/06/16 03:44:10;;;;;;;11.88;7.95;;;;;;;15.11;76.53;93985.53;4924352;29;20450;-58
2022/06/16 03:46:37;;;;;;;11.98;7.72;;;;;;;15.10;76.03;93984.00;4925494;29;20051;-58
2022/06/16 03:49:05;;;;;;;13.43;8.27;;;;;;;15.11;77.26;93980.78;4931561;29;20496;-58
2022/06/16 03:51:31;;;;;;;12.07;8.25;;;;;;;14.66;77.29;93978.22;4932192;29;20044;-58
2022/06/16 03:53:58;;;;;;;15.07;8.75;;;;;;;14.81;77.62;93979.34;4931725;29;20410;-58
2022/06/16 03:56:25;;;;;;;13.02;9.23;;;;;;;14.78;79.73;93977.47;4932287;29;20048;-58
2022/06/16 03:58:54;;;;;;;12.80;8.55;;;;;;;14.71;79.72;93974.94;4932182;29;20048;-58
2022/06/16 04:01:21;;;;;;;13.87;9.07;;;;;;;14.70;79.86;93985.19;4924862;29;20415;-58
2022/06/16 04:03:59;;;;;;;13.68;8.93;;;;;;;14.89;78.24;93977.91;4926129;29;20125;-58
2022/06/16 04:06:33;;;;;;;14.70;9.07;;;;;;;15.05;80.05;93981.75;4931236;29;20051;-58
2022/06/16 04:09:03;;;;;;;13.35;8.70;;;;;;;15.11;77.64;93985.53;4933382;29;20102;-57
2022/06/16 04:11:32;;;;;;;13.38;8.82;;;;;;;15.07;77.30;93990.38;4935598;29;20048;-59
2022/06/16 04:14:08;;;;;;;14.50;8.47;;;;;;;15.16;77.13;93988.50;4935326;29;20048;-58
2022/06/16 04:16:44;;;;;;;10.88;8.25;;;;;;;15.27;76.30;93990.16;4918611;29;20395;-59
2022/06/16 04:19:17;;;;;;;14.75;8.40;;;;;;;15.16;76.17;93993.28;4934091;29;20110;-58
2022/06/16 04:21:46;;;;;;;11.43;8.60;;;;;;;15.17;76.72;93994.81;4935469;29;20044;-58
2022/06/16 04:24:13;;;;;;;11.82;8.65;;;;;;;15.41;76.42;93988.91;4934821;29;20051;-56
2022/06/16 04:26:41;;;;;;;12.57;8.50;;;;;;;15.89;75.59;93998.00;4924409;29;20040;-58
2022/06/16 04:29:10;;;;;;;11.07;7.97;;;;;;;16.42;74.27;93995.38;4916016;29;20058;-58
2022/06/16 04:31:38;;;;;;;10.65;7.90;;;;;;;18.17;69.05;93995.22;4919655;29;20062;-59
2022/06/16 04:34:05;;;;;;;12.45;8.20;;;;;;;17.55;68.12;93985.09;4919609;29;20050;-58
2022/06/16 04:36:32;;;;;;;12.68;8.55;;;;;;;15.82;71.45;93999.03;4921891;29;20048;-59
2022/06/16 04:38:59;;;;;;;12.87;8.60;;;;;;;15.46;74.01;94002.97;4934780;29;20046;-57
2022/06/16 04:41:26;;;;;;;14.57;9.02;;;;;;;15.86;73.34;94005.22;4935447;29;20455;-59
2022/06/16 04:43:53;;;;;;;12.85;9.20;;;;;;;15.93;73.73;94010.50;4916432;29;20056;-59
2022/06/16 04:46:20;;;;;;;13.90;8.85;;;;;;;15.97;73.26;94007.63;4927612;29;20047;-58
2022/06/16 04:48:47;;;;;;;16.20;9.18;;;;;;;15.91;74.05;94010.19;4935127;29;20054;-58
2022/06/16 04:51:15;;;;;;;16.03;9.27;;;;;;;16.09;74.74;94014.34;4934798;29;20058;-58
2022/06/16 04:53:42;;;;;;;15.73;9.23;;;;;;;16.22;74.44;94008.72;4935172;29;20039;-58
2022/06/16 04:56:08;;;;;;;15.95;9.60;;;;;;;16.30;74.42;94010.81;4934685;29;20052;-58
2022/06/16 04:58:35;;;;;;;16.60;9.20;;;;;;;16.51;73.59;94008.50;4921235;29;20123;-58
2022/06/16 05:01:05;;;;;;;12.95;9.35;;;;;;;16.24;75.46;94006.28;4915650;29;20466;-58
2022/06/16 05:03:48;;;;;;;16.07;9.17;;;;;;;16.42;74.95;94000.91;4928707;29;20427;-59
2022/06/16 05:06:16;;;;;;;12.98;9.52;;;;;;;16.56;75.01;94000.38;4934171;29;20426;-58
2022/06/16 05:08:43;;;;;;;15.00;9.13;;;;;;;17.14;72.87;94003.75;4934739;29;20360;-59
2022/06/16 05:11:10;;;;;;;13.57;9.13;;;;;;;17.26;72.55;93996.56;4934254;29;20059;-58
2022/06/16 05:13:37;;;;;;;11.88;9.05;;;;;;;17.17;72.39;94006.41;4934732;29;20052;-58
2022/06/16 05:16:04;;;;;;;11.60;8.80;;;;;;;17.22;72.22;94012.56;4934325;29;20397;-58
2022/06/16 05:18:30;;;;;;;12.60;8.85;;;;;;;17.99;68.77;94020.19;4934652;29;20491;-58
2022/06/16 05:21:24;;;;;;;14.43;8.80;;;;;;;18.42;67.41;94016.34;4933332;29;20070;-58
2022/06/16 05:23:50;;;;;;;13.55;9.10;;;;;;;17.74;69.21;94019.19;4929661;29;20035;-58
2022/06/16 05:26:18;;;;;;;13.63;8.98;;;;;;;20.23;62.14;94013.03;4916707;29;20055;-58
2022/06/16 05:28:45;;;;;;;12.23;8.53;;;;;;;22.56;56.66;94016.19;4934500;29;20099;-59
2022/06/16 05:31:11;;;;;;;10.68;8.10;;;;;;;23.70;52.03;94013.13;4933930;29;20043;-59
2022/06/16 05:33:38;;;;;;;10.93;7.60;;;;;;;24.88;48.80;94010.13;4925801;29;20044;-59
2022/06/16 05:36:09;;;;;;;11.35;7.68;;;;;;;24.67;48.59;94006.75;4898394;29;20082;-59
2022/06/16 05:38:37;;;;;;;11.30;7.90;;;;;;;24.23;49.59;94014.47;4934386;29;20407;-57
2022/06/16 05:41:07;;;;;;;10.80;8.03;;;;;;;25.59;46.39;94018.34;4933746;29;20581;-57
2022/06/16 05:43:35;;;;;;;10.93;7.53;;;;;;;26.00;45.24;94008.63;4933948;29;20056;-57
2022/06/16 05:46:04;;;;;;;10.35;7.80;;;;;;;25.70;46.13;94001.50;4916491;29;20083;-59
2022/06/16 05:48:33;;;;;;;9.63;7.55;;;;;;;26.05;46.03;94005.03;4934086;29;20044;-57
2022/06/16 05:51:11;;;;;;;8.88;6.55;;;;;;;28.29;41.26;94012.50;4933608;29;20055;-57
2022/06/16 05:53:38;;;;;;;9.30;7.43;;;;;;;29.42;38.78;94009.00;4934208;29;20039;-57
2022/06/16 05:56:12;;;;;;;9.43;6.63;;;;;;;29.56;38.35;94017.53;4932141;29;20413;-58
2022/06/16 05:58:40;;;;;;;9.18;6.85;;;;;;;30.75;36.23;94027.50;4933765;29;20051;-58
2022/06/16 06:01:08;;;;;;;8.73;6.90;;;;;;;28.05;40.23;94045.09;4933238;29;20052;-58
2022/06/16 06:03:37;;;;;;;10.75;7.00;;;;;;;27.26;42.12;94033.69;4933660;29;20039;-58
2022/06/16 06:06:04;;;;;;;10.80;7.07;;;;;;;27.44;42.11;94037.91;4933112;29;20098;-58
2022/06/16 06:16:55;;;;;;;10.52;6.68;;;;;;;32.55;32.78;94042.38;4925377;29;20035;-58
2022/06/16 06:19:25;;;;;;;7.83;6.30;;;;;;;33.25;31.31;94041.41;4932846;29;20483;-59
2022/06/16 06:22:11;;;;;;;8.70;6.13;;;;;;;33.23;31.70;94033.44;4933197;29;20487;-58
2022/06/16 06:24:41;;;;;;;8.80;6.80;;;;;;;31.27;34.53;94037.22;4932067;29;21462;-58
2022/06/16 06:27:16;;;;;;;9.77;6.82;;;;;;;31.64;34.57;94029.69;4932867;29;20051;-58
2022/06/16 06:29:44;;;;;;;8.85;6.22;;;;;;;33.56;31.28;94041.50;4931791;29;20046;-58
2022/06/16 06:32:13;;;;;;;8.97;6.57;;;;;;;34.28;29.92;94037.63;4913358;29;20490;-58
2022/06/16 06:34:41;;;;;;;8.60;6.05;;;;;;;35.26;29.08;94047.88;4925283;29;20048;-59
2022/06/16 06:37:11;;;;;;;9.10;6.65;;;;;;;34.45;29.81;94054.13;4920974;29;20048;-59
2022/06/16 06:39:38;;;;;;;8.90;7.15;;;;;;;32.41;33.40;94055.88;4933227;29;20102;-59
2022/06/16 06:42:05;;;;;;;11.90;6.80;;;;;;;32.16;34.50;94055.53;4932548;29;20119;-58
2022/06/16 06:44:33;;;;;;;8.63;5.80;;;;;;;34.93;29.84;94048.56;4933033;29;20378;-58
2022/06/16 06:47:00;;;;;;;9.43;6.22;;;;;;;35.89;28.19;94049.84;4932453;29;20052;-58
2022/06/16 06:49:27;;;;;;;7.75;5.82;;;;;;;36.29;27.13;94051.84;4932953;29;20047;-62
2022/06/16 06:51:54;;;;;;;7.88;5.40;;;;;;;37.27;26.76;94047.81;4915980;29;20044;-59
2022/06/16 06:54:21;;;;;;;7.80;5.32;;;;;;;38.11;24.86;94051.69;4931834;29;20067;-59
2022/06/16 06:56:50;;;;;;;7.47;5.80;;;;;;;36.27;27.03;94049.56;4915616;29;20062;-59
2022/06/16 06:59:19;;;;;;;9.05;6.00;;;;;;;32.51;31.79;94051.22;4915435;29;20086;-58
2022/06/16 07:01:47;;;;;;;9.38;6.10;;;;;;;35.00;29.02;94053.47;4932809;29;20124;-59
2022/06/16 07:04:14;;;;;;;6.88;5.30;;;;;;;37.52;25.78;94054.19;4931111;29;20090;-60
2022/06/16 07:06:41;;;;;;;6.93;5.45;;;;;;;38.93;24.47;94061.56;4932544;29;20494;-59
2022/06/16 07:09:11;;;;;;;9.83;5.70;;;;;;;32.93;31.26;94070.25;4924507;29;20064;-59
2022/06/16 07:11:41;;;;;;;8.10;5.20;;;;;;;32.98;31.85;94057.94;4913588;29;20058;-59
2022/06/16 07:14:09;;;;;;;7.95;5.30;;;;;;;31.14;34.75;94057.88;4915232;29;20056;-59
2022/06/16 07:16:36;;;;;;;8.25;5.60;;;;;;;32.33;34.14;94055.84;4914928;29;20047;-59
2022/06/16 07:19:03;;;;;;;10.60;6.50;;;;;;;29.43;39.42;94052.94;4917305;29;20491;-59
2022/06/16 07:21:30;;;;;;;8.50;5.40;;;;;;;33.15;33.13;94054.66;4918973;29;20043;-59
2022/06/16 07:23:57;;;;;;;11.52;6.15;;;;;;;33.33;32.30;94061.34;4932342;29;20394;-59
2022/06/16 07:26:24;;;;;;;9.68;5.40;;;;;;;34.77;29.99;94053.53;4929788;29;20638;-59
2022/06/16 07:28:51;;;;;;;7.60;4.80;;;;;;;36.58;26.89;94052.91;4920908;29;20040;-59
2022/06/16 07:31:18;;;;;;;10.52;5.07;;;;;;;36.75;25.90;94051.44;4931679;29;20052;-59
2022/06/16 07:34:01;;;;;;;8.63;5.07;;;;;;;36.05;26.51;94059.81;4925962;29;20056;-59
2022/06/16 07:36:28;;;;;;;8.25;4.90;;;;;;;36.32;27.49;94062.09;4932285;29;20047;-59
2022/06/16 07:38:54;;;;;;;9.38;4.70;;;;;;;36.75;25.21;94065.75;4932223;29;20048;-59
2022/06/16 07:41:36;;;;;;;9.40;4.97;;;;;;;35.77;26.62;94070.28;4932161;29;20044;-59
2022/06/16 07:44:15;;;;;;;8.18;5.38;;;;;;;32.69;30.89;94066.50;4914937;29;20040;-59
2022/06/16 07:46:44;;;;;;;7.20;5.33;;;;;;;34.50;28.66;94075.97;4917069;29;20056;-60
2022/06/16 07:49:13;;;;;;;7.53;5.38;;;;;;;35.60;27.32;94067.31;4918760;29;20052;-59
2022/06/16 07:51:42;;;;;;;9.38;5.57;;;;;;;33.79;29.11;94073.63;4935899;29;20046;-59
2022/06/16 07:54:10;;;;;;;8.75;5.38;;;;;;;34.13;29.12;94057.53;4935452;29;20503;-59
2022/06/16 07:56:57;;;;;;;10.43;5.50;;;;;;;36.22;26.45;94064.84;4935806;29;20079;-59
2022/06/16 07:59:24;;;;;;;8.13;5.63;;;;;;;37.23;24.94;94064.66;4934932;29;20465;-60
2022/06/16 08:01:51;;;;;;;8.45;5.40;;;;;;;38.21;24.27;94069.66;4935585;29;20292;-59
2022/06/16 08:04:18;;;;;;;7.78;5.03;;;;;;;38.13;23.68;94072.66;4935179;29;20055;-60
2022/06/16 08:06:45;;;;;;;9.07;5.05;;;;;;;36.80;25.06;94070.44;4935464;29;20058;-59
2022/06/16 08:09:12;;;;;;;7.97;5.32;;;;;;;36.11;25.49;94074.63;4926828;29;20044;-60
2022/06/16 08:14:24;;;;;;;8.38;5.55;;;;;;;39.41;22.35;94079.44;4919050;29;20661;-58
2022/06/16 08:16:52;;;;;;;6.78;5.05;;;;;;;38.86;22.54;94073.19;4917491;29;20056;-58
2022/06/16 08:19:19;;;;;;;8.20;5.50;;;;;;;37.76;23.33;94078.31;4922576;29;20106;-59
2022/06/16 08:21:46;;;;;;;8.98;5.85;;;;;;;38.36;23.35;94080.16;4921609;29;20517;-59
2022/06/16 08:24:14;;;;;;;7.27;5.10;;;;;;;38.74;22.73;94079.53;4934895;29;20051;-60
2022/06/16 08:26:41;;;;;;;8.07;4.90;;;;;;;38.92;22.85;94071.53;4931747;29;20193;-59
2022/06/16 08:29:12;;;;;;;9.13;5.25;;;;;;;37.24;23.59;94077.63;4925362;29;20106;-59
2022/06/16 08:31:39;;;;;;;9.27;5.30;;;;;;;38.20;23.48;94088.22;4935598;29;20052;-60
2022/06/16 08:34:06;;;;;;;9.68;5.60;;;;;;;39.59;21.82;94080.81;4930339;29;20048;-60
2022/06/16 08:36:34;;;;;;;7.37;5.13;;;;;;;39.87;21.92;94081.41;4935168;29;20036;-60
2022/06/16 08:39:01;;;;;;;8.30;5.60;;;;;;;36.54;25.10;94083.25;4934691;29;20043;-59
2022/06/16 08:41:36;;;;;;;8.07;5.88;;;;;;;34.97;27.93;94077.44;4935359;29;20089;-60
2022/06/16 08:44:11;;;;;;;10.57;6.30;;;;;;;34.52;28.44;94086.78;4928902;29;20052;-60
2022/06/16 08:46:51;;;;;;;12.43;6.90;;;;;;;32.82;30.55;94086.31;4911933;29;20486;-59
2022/06/16 08:49:32;;;;;;;9.40;6.50;;;;;;;34.35;28.37;94090.22;4927804;29;20075;-59
2022/06/16 08:52:28;;;;;;;7.35;6.00;;;;;;;34.40;28.46;94092.88;4930078;29;20044;-58
2022/06/16 08:54:58;;;;;;;8.18;6.55;;;;;;;32.20;30.80;94101.38;4934602;29;20047;-59
2022/06/16 08:57:51;;;;;;;11.10;6.80;;;;;;;30.46;34.94;94098.88;4933810;29;20749;-59
2022/06/16 09:00:30;;;;;;;8.90;6.80;;;;;;;34.05;30.22;94108.81;4924728;29;20048;-59
2022/06/16 09:03:28;;;;;;;6.90;5.37;;;;;;;36.28;24.87;94113.19;4933096;29;20122;-59
2022/06/16 09:06:04;;;;;;;7.32;5.50;;;;;;;34.56;27.31;94118.53;4933519;29;21483;-59
2022/06/16 09:09:00;;;;;;;8.60;5.57;;;;;;;35.11;25.94;94125.69;4931323;29;20062;-59
2022/06/16 09:11:42;;;;;;;10.57;5.22;;;;;;;35.84;22.89;94125.06;4910584;29;20079;-59
2022/06/16 09:17:55;;;;;;;6.97;4.30;;;;;;;35.98;20.92;94132.78;4920353;29;20426;-59
2022/06/16 09:20:44;;;;;;;6.60;3.90;;;;;;;37.02;20.71;94130.88;4919803;29;20043;-60
2022/06/16 09:23:23;;;;;;;5.95;4.05;;;;;;;37.59;21.31;94135.66;4932180;29;20083;-60
2022/06/16 09:26:14;;;;;;;7.15;3.92;;;;;;;38.98;19.44;94140.16;4934433;29;20403;-60
2022/06/16 09:28:53;;;;;;;6.75;3.63;;;;;;;38.19;17.03;94144.03;4909272;29;20692;-60
2022/06/16 09:31:30;;;;;;;5.73;3.50;;;;;;;38.55;17.74;94133.94;4933665;29;20052;-60
2022/06/16 09:34:06;;;;;;;6.72;3.60;;;;;;;38.31;17.92;94142.13;4930442;29;20044;-60
2022/06/16 09:36:43;;;;;;;4.95;3.33;;;;;;;36.68;17.51;94135.19;4933451;29;21566;-60
2022/06/16 09:39:30;;;;;;;5.18;2.90;;;;;;;34.19;19.98;94141.50;4933762;29;20055;-60
2022/06/16 09:42:36;;;;;;;6.03;3.40;;;;;;;36.69;17.50;94148.16;4933544;29;20051;-60
2022/06/16 09:45:21;;;;;;;6.80;3.10;;;;;;;38.85;15.89;94152.75;4906260;29;20048;-60
2022/06/16 09:48:08;;;;;;;20.60;18.00;;;;;;;39.25;15.44;94151.50;4933785;29;20044;-60
2022/06/16 09:50:56;;;;;;;7.20;3.85;;;;;;;38.80;15.72;94150.16;4913519;29;20095;-60
2022/06/16 09:53:38;;;;;;;4.32;3.05;;;;;;;38.56;16.05;94155.56;4917893;29;20051;-60
2022/06/16 09:56:22;;;;;;;4.97;3.13;;;;;;;38.82;15.66;94156.84;4933454;29;20134;-60
2022/06/16 09:59:08;;;;;;;5.77;3.13;;;;;;;39.34;15.19;94159.38;4933820;29;20046;-60
2022/06/16 10:01:41;;;;;;;5.90;3.30;;;;;;;38.24;16.30;94160.19;4933087;29;20040;-60
2022/06/16 10:04:08;;;;;;;5.85;3.08;;;;;;;38.25;16.54;94160.94;4920841;29;20048;-60
2022/06/16 10:07:18;;;;;;;6.72;3.00;;;;;;;37.55;16.47;94158.16;4932248;29;20047;-60
2022/06/16 10:09:53;;;;;;;5.85;3.40;;;;;;;37.87;17.07;94156.47;4932666;29;20086;-60
2022/06/16 10:12:27;;;;;;;7.40;3.47;;;;;;;37.75;17.13;94167.69;4933146;29;20085;-59
2022/06/16 10:15:09;;;;;;;6.40;3.60;;;;;;;38.10;17.42;94177.00;4932301;29;20073;-59
2022/06/16 10:17:39;;;;;;;5.85;3.70;;;;;;;37.89;18.04;94166.00;4920463;29;20671;-60
2022/06/16 10:20:06;;;;;;;6.30;3.50;;;;;;;38.36;17.41;94160.41;4922519;29;20058;-60
2022/06/16 10:22:37;;;;;;;6.45;3.58;;;;;;;35.96;19.50;94174.69;4933600;29;20036;-60
2022/06/16 10:25:16;;;;;;;5.13;3.40;;;;;;;37.81;18.09;94176.78;4932972;29;20062;-59
2022/06/16 10:27:48;;;;;;;6.25;3.50;;;;;;;36.87;19.27;94166.13;4933264;29;20047;-60
2022/06/16 10:30:43;;;;;;;8.23;3.47;;;;;;;37.12;18.37;94175.44;4932941;29;20051;-59
2022/06/16 10:33:33;;;;;;;6.35;3.50;;;;;;;37.57;17.10;94172.69;4928353;29;20063;-60
2022/06/16 10:36:19;;;;;;;4.90;3.20;;;;;;;37.17;17.87;94170.81;4917026;29;20101;-59
2022/06/16 10:39:19;;;;;;;6.33;3.33;;;;;;;37.58;17.23;94174.97;4932758;29;20047;-59
2022/06/16 10:41:46;;;;;;;5.22;3.30;;;;;;;35.33;19.89;94181.19;4932287;29;20036;-59
2022/06/16 10:44:14;;;;;;;5.90;3.05;;;;;;;36.52;18.46;94177.41;4902307;29;20476;-58
2022/06/16 10:46:52;;;;;;;6.63;3.50;;;;;;;35.04;19.97;94186.38;4932975;29;20050;-59
2022/06/16 10:49:27;;;;;;;5.70;3.17;;;;;;;35.04;20.15;94189.97;4932259;29;20051;-59
2022/06/16 10:52:06;;;;;;;5.90;3.30;;;;;;;34.34;20.49;94182.72;4932502;29;20040;-59
2022/06/16 10:54:36;;;;;;;6.07;3.30;;;;;;;33.91;21.19;94187.16;4932440;29;20032;-58
2022/06/16 10:57:23;;;;;;;8.65;3.67;;;;;;;32.65;21.89;94188.31;4931163;29;20374;-58
2022/06/16 11:00:15;;;;;;;6.85;3.40;;;;;;;31.90;23.44;94187.72;4932927;29;20403;-58
2022/06/16 11:03:04;;;;;;;7.15;3.72;;;;;;;31.70;24.31;94177.09;4931972;29;20660;-58
2022/06/16 11:05:58;;;;;;;7.07;3.70;;;;;;;31.09;24.76;94177.03;4930242;29;20468;-58
2022/06/16 11:08:35;;;;;;;5.40;3.80;;;;;;;31.84;24.38;94184.25;4930354;29;20054;-58
2022/06/16 11:11:32;;;;;;;7.35;3.80;;;;;;;31.98;23.93;94182.13;4932331;29;20047;-58
2022/06/16 11:14:01;;;;;;;7.45;4.32;;;;;;;31.63;24.13;94184.19;4931421;29;20054;-58
2022/06/16 11:16:37;;;;;;;7.43;4.32;;;;;;;30.83;25.26;94184.97;4931458;29;20044;-58
2022/06/16 11:19:10;;;;;;;7.73;4.20;;;;;;;30.14;27.05;94192.28;4918277;29;20122;-58
2022/06/16 11:21:45;;;;;;;6.38;4.10;;;;;;;29.91;26.96;94208.84;4931202;29;20040;-58
2022/06/16 11:24:25;;;;;;;6.78;4.13;;;;;;;30.44;26.61;94197.75;4931859;29;20048;-58
2022/06/16 11:27:02;;;;;;;9.68;3.92;;;;;;;30.64;26.02;94192.78;4932426;29;20050;-58
2022/06/16 11:29:34;;;;;;;5.63;3.83;;;;;;;30.72;25.54;94187.25;4931363;29;20537;-58
2022/06/16 11:32:20;;;;;;;8.07;3.70;;;;;;;30.72;26.48;94192.91;4932078;29;20046;-58
2022/06/16 11:34:47;;;;;;;8.27;4.05;;;;;;;30.59;26.83;94193.66;4928262;29;20044;-58
2022/06/16 11:37:38;;;;;;;6.68;3.90;;;;;;;31.20;25.42;94196.66;4931463;29;20098;-58
2022/06/16 11:40:43;;;;;;;7.88;3.80;;;;;;;31.14;24.27;94193.19;4931831;29;20040;-59
2022/06/16 11:43:23;;;;;;;6.78;3.63;;;;;;;30.66;25.49;94202.25;4911519;29;20053;-58
2022/06/16 11:46:17;;;;;;;6.80;3.50;;;;;;;30.00;24.28;94199.19;4932317;29;20046;-58
2022/06/16 11:49:10;;;;;;;7.88;3.60;;;;;;;29.91;25.20;94199.59;4931293;29;20788;-59
2022/06/16 11:51:39;;;;;;;8.00;3.80;;;;;;;30.77;25.74;94183.56;4931197;29;20095;-58
2022/06/16 11:54:18;;;;;;;8.80;3.80;;;;;;;30.22;25.16;94193.22;4931543;29;20138;-58
2022/06/16 11:57:00;;;;;;;8.50;3.70;;;;;;;30.18;26.24;94189.91;4932199;29;20142;-58
2022/06/16 11:59:54;;;;;;;8.90;3.60;;;;;;;30.57;25.78;94191.38;4931305;29;20617;-59
2022/06/16 12:02:21;;;;;;;6.63;3.90;;;;;;;29.87;26.12;94197.84;4931657;29;20066;-58
2022/06/16 12:04:53;;;;;;;8.02;4.10;;;;;;;29.18;27.36;94199.25;4932097;29;20479;-58
2022/06/16 12:07:35;;;;;;;7.72;4.03;;;;;;;29.39;27.11;94207.97;4931639;29;20367;-59
2022/06/16 12:10:17;;;;;;;7.30;3.90;;;;;;;28.92;27.42;94199.00;4931720;29;20042;-58
2022/06/16 12:12:51;;;;;;;9.23;3.97;;;;;;;28.33;28.00;94207.72;4931901;29;20067;-58
2022/06/16 12:15:34;;;;;;;8.13;3.88;;;;;;;29.22;26.74;94199.72;4931542;29;20058;-59
2022/06/16 12:18:38;;;;;;;8.70;4.00;;;;;;;29.72;26.43;94200.38;4925766;29;20056;-59
2022/06/16 12:21:29;;;;;;;6.95;3.45;;;;;;;29.80;26.13;94212.63;4929348;29;20052;-59
2022/06/16 12:23:56;;;;;;;6.97;3.53;;;;;;;29.82;25.36;94212.06;4932091;29;20040;-58
2022/06/16 12:26:32;;;;;;;6.77;3.50;;;;;;;29.73;25.22;94203.97;4931088;29;20513;-58